Time;durP1;ratioP1;P1;durP2;ratioP2;P2;SDS_P1;SDS_P2;PMS_P1;PMS_P2;Temp;Humidity;BMP_temperature;BMP_pressure;BME280_temperature;BME280_humidity;BME280_pressure;Samples;Min_cycle;Max_cycle;Signal;HPM_P1;HPM_P2
2021/12/06 00:01:16;;;;;;;39.50;25.35;;;;;;;2.75;98.98;101181.19;4753460;30;20068;-81
2021/12/06 00:04:03;;;;;;;35.63;24.63;;;;;;;2.84;99.18;101183.50;4753663;30;20035;-80
2021/12/06 00:06:30;;;;;;;37.90;25.45;;;;;;;2.89;99.23;101194.44;4753579;30;20036;-81
2021/12/06 00:08:56;;;;;;;40.63;26.65;;;;;;;2.83;98.79;101174.19;4753658;30;20028;-79
2021/12/06 00:11:21;;;;;;;39.75;26.67;;;;;;;2.98;98.71;101203.59;4753577;30;20115;-79
2021/12/06 00:13:49;;;;;;;37.47;26.05;;;;;;;2.99;99.29;101193.34;4753663;30;20393;-78
2021/12/06 00:16:19;;;;;;;38.33;25.33;;;;;;;3.00;98.84;101202.66;4752805;30;20115;-78
2021/12/06 00:18:46;;;;;;;37.55;24.70;;;;;;;2.99;98.69;101192.50;4753443;30;20036;-84
2021/12/06 00:21:12;;;;;;;40.75;26.05;;;;;;;2.92;98.77;101191.81;4753392;30;20036;-78
2021/12/06 00:23:38;;;;;;;39.33;25.63;;;;;;;2.84;98.68;101188.59;4753271;30;20076;-78
2021/12/06 00:26:07;;;;;;;37.60;25.20;;;;;;;2.67;99.19;101168.66;4753142;30;20043;-78
2021/12/06 00:28:32;;;;;;;39.17;25.40;;;;;;;2.94;99.25;101212.16;4753261;30;20367;-78
2021/12/06 00:30:58;;;;;;;41.72;26.77;;;;;;;2.95;99.35;101204.50;4737105;30;20031;-80
2021/12/06 00:33:25;;;;;;;39.38;25.85;;;;;;;2.85;99.43;101192.84;4753097;30;20542;-79
2021/12/06 00:35:51;;;;;;;38.85;26.13;;;;;;;2.96;99.27;101213.00;4753083;30;20123;-78
2021/12/06 00:38:16;;;;;;;40.28;25.80;;;;;;;2.95;99.35;101216.41;4753088;30;20107;-79
2021/12/06 00:40:45;;;;;;;37.53;24.83;;;;;;;2.91;98.90;101218.19;4753224;30;20123;-78
2021/12/06 00:43:11;;;;;;;38.13;23.98;;;;;;;2.90;98.94;101221.63;4752958;30;20028;-79
2021/12/06 00:45:37;;;;;;;34.17;23.65;;;;;;;2.88;98.96;101224.22;4752767;30;20111;-77
2021/12/06 00:48:03;;;;;;;42.35;25.73;;;;;;;2.80;99.15;101217.63;4752859;30;20124;-78
2021/12/06 00:50:34;;;;;;;37.70;26.10;;;;;;;2.89;99.54;101240.34;4752821;30;20052;-79
2021/12/06 00:53:01;;;;;;;38.25;26.17;;;;;;;2.71;99.39;101213.59;4753033;30;20419;-78
2021/12/06 00:55:26;;;;;;;40.88;26.58;;;;;;;2.94;99.33;101253.00;4752784;30;20039;-78
2021/12/06 00:57:53;;;;;;;41.83;26.80;;;;;;;2.91;99.29;101248.81;4752858;30;20041;-79
2021/12/06 01:00:24;;;;;;;43.97;27.45;;;;;;;2.97;99.11;101268.25;4752621;30;20030;-79
2021/12/06 01:02:50;;;;;;;40.13;26.17;;;;;;;2.98;99.46;101269.91;4752691;30;20330;-79
2021/12/06 01:05:16;;;;;;;42.05;27.10;;;;;;;3.00;99.15;101281.75;4752856;30;20028;-78
2021/12/06 01:07:42;;;;;;;42.60;26.95;;;;;;;2.90;98.91;101265.00;4752851;30;20078;-78
2021/12/06 01:10:09;;;;;;;41.28;26.38;;;;;;;2.87;98.81;101265.91;4752629;30;20036;-81
2021/12/06 01:12:35;;;;;;;42.92;26.42;;;;;;;3.01;98.75;101285.97;4752957;30;20040;-78
2021/12/06 01:15:01;;;;;;;40.15;25.83;;;;;;;2.82;98.98;101254.97;4752797;30;20024;-78
2021/12/06 01:17:26;;;;;;;39.40;25.25;;;;;;;2.69;98.67;101229.81;4752431;30;20486;-77
2021/12/06 01:19:51;;;;;;;40.78;26.20;;;;;;;2.87;98.70;101247.22;4752579;30;20040;-80
2021/12/06 01:24:56;;;;;;;39.20;25.23;;;;;;;2.95;98.69;101267.41;4752802;30;20075;-79
2021/12/06 01:27:41;;;;;;;42.83;26.20;;;;;;;2.96;98.94;101271.66;4752610;30;20492;-77
2021/12/06 01:30:33;;;;;;;40.92;25.92;;;;;;;2.82;98.99;101256.69;4751964;30;20043;-79
2021/12/06 01:33:17;;;;;;;;;;;;;;;2.99;98.68;101282.63;4752769;30;20469;-78
2021/12/06 01:41:12;;;;;;;36.40;25.88;;;;;;;2.91;98.54;101284.53;4752850;30;20079;-78
2021/12/06 01:44:13;;;;;;;41.45;25.75;;;;;;;2.93;98.66;101292.97;4752532;30;20059;-81
2021/12/06 01:46:53;;;;;;;41.28;25.98;;;;;;;2.91;98.87;101293.88;4752128;30;20032;-80
2021/12/06 01:49:24;;;;;;;42.95;26.92;;;;;;;2.86;99.13;101286.34;4752282;30;20486;-80
2021/12/06 01:51:51;;;;;;;;;;;;;;;2.94;98.63;101298.91;4752574;30;20052;-79
2021/12/06 01:54:17;;;;;;;38.47;24.25;;;;;;;2.83;98.79;101289.78;4752377;30;20009;-79
2021/12/06 01:56:43;;;;;;;37.55;23.83;;;;;;;2.76;98.83;101292.53;4752263;30;20082;-79
2021/12/06 01:59:10;;;;;;;36.70;24.48;;;;;;;2.81;98.83;101303.47;4752371;30;20056;-82
2021/12/06 02:01:36;;;;;;;36.45;23.25;;;;;;;2.77;98.74;101309.53;4751956;30;20097;-78
2021/12/06 02:04:03;;;;;;;35.65;23.60;;;;;;;2.78;98.52;101308.66;4752021;30;20098;-76
2021/12/06 02:06:30;;;;;;;39.33;26.40;;;;;;;2.77;99.22;101310.34;4752434;30;20101;-86
2021/12/06 02:08:56;;;;;;;37.75;25.25;;;;;;;2.61;99.02;101280.97;4752292;30;20064;-86
2021/12/06 02:11:24;;;;;;;39.13;24.77;;;;;;;2.74;99.10;101310.41;4752287;30;20071;-87
2021/12/06 02:13:59;;;;;;;37.55;23.48;;;;;;;2.74;99.16;101309.56;4752228;30;20037;-87
2021/12/06 02:16:34;;;;;;;37.95;25.05;;;;;;;2.64;98.91;101297.91;4752147;30;20036;-88
2021/12/06 02:19:04;;;;;;;40.08;25.02;;;;;;;2.45;99.35;101265.16;4752049;30;20028;-82
2021/12/06 02:21:34;;;;;;;41.17;24.98;;;;;;;2.71;99.18;101310.47;4752488;30;20075;-88
2021/12/06 02:24:05;;;;;;;38.92;25.48;;;;;;;2.72;98.93;101313.88;4752263;30;20111;-87
2021/12/06 02:26:31;;;;;;;37.20;25.00;;;;;;;2.71;98.68;101315.59;4752111;30;20040;-87
2021/12/06 02:28:56;;;;;;;41.65;25.60;;;;;;;2.70;98.84;101318.19;4752077;30;20032;-87
2021/12/06 02:31:24;;;;;;;40.20;25.92;;;;;;;2.70;99.17;101321.56;4752405;30;20060;-85
2021/12/06 02:33:50;;;;;;;40.17;25.35;;;;;;;2.73;99.04;101326.59;4735853;30;20447;-86
2021/12/06 02:36:17;;;;;;;41.83;25.45;;;;;;;2.73;99.46;101331.69;4752089;30;20129;-87
2021/12/06 02:38:43;;;;;;;38.20;24.65;;;;;;;2.71;99.19;101330.06;4752084;30;20036;-88
2021/12/06 02:41:09;;;;;;;40.83;25.60;;;;;;;2.61;99.24;101314.13;4754785;30;20069;-87
2021/12/06 02:43:37;;;;;;;41.33;25.90;;;;;;;2.71;99.21;101335.97;4755172;30;20490;-87
2021/12/06 02:46:04;;;;;;;43.55;27.65;;;;;;;2.79;99.60;101353.69;4755166;30;20048;-87
2021/12/06 02:48:29;;;;;;;42.00;26.33;;;;;;;2.75;99.15;101341.84;4754890;30;20036;-86
2021/12/06 02:50:59;;;;;;;43.13;25.88;;;;;;;2.80;99.08;101358.72;4754978;30;20052;-84
2021/12/06 02:53:27;;;;;;;40.97;26.20;;;;;;;2.55;99.60;101321.88;4755093;30;20036;-86
2021/12/06 02:55:57;;;;;;;40.50;25.85;;;;;;;2.80;99.18;101360.44;4755254;30;20421;-88
2021/12/06 03:01:06;;;;;;;43.35;28.00;;;;;;;2.77;99.40;101358.81;4755297;30;20044;-85
2021/12/06 03:03:31;;;;;;;46.97;26.80;;;;;;;2.70;99.66;101351.31;4754700;30;20111;-84
2021/12/06 03:05:56;;;;;;;42.47;26.30;;;;;;;2.66;99.33;101345.47;4754586;30;20115;-86
2021/12/06 03:08:58;;;;;;;42.90;26.15;;;;;;;2.75;99.51;101355.47;4754924;30;20037;-86
2021/12/06 03:11:28;;;;;;;45.60;28.98;;;;;;;2.79;99.48;101362.16;4753874;30;20038;-88
2021/12/06 03:13:54;;;;;;;42.92;27.20;;;;;;;2.81;99.96;101359.56;4754639;30;20089;-88
2021/12/06 03:16:20;;;;;;;49.45;28.10;;;;;;;2.73;99.73;101349.53;4754540;30;20032;-83
2021/12/06 03:18:47;;;;;;;45.55;26.83;;;;;;;2.66;99.71;101339.53;4754848;30;20032;-87
2021/12/06 03:21:14;;;;;;;46.17;27.70;;;;;;;2.61;99.90;101336.22;4754270;30;20024;-84
2021/12/06 03:23:39;;;;;;;44.03;26.92;;;;;;;2.80;99.58;101363.00;4738391;30;20426;-87
2021/12/06 03:26:06;;;;;;;47.13;28.85;;;;;;;2.51;99.69;101315.19;4754457;30;20071;-85
2021/12/06 03:28:39;;;;;;;45.65;28.67;;;;;;;2.78;99.62;101368.13;4754518;30;20058;-88
2021/12/06 03:31:06;;;;;;;41.85;25.67;;;;;;;2.75;99.28;101364.78;4754457;30;20433;-87
2021/12/06 03:33:36;;;;;;;42.63;27.05;;;;;;;2.61;99.54;101339.63;4754373;30;20028;-88
2021/12/06 03:36:06;;;;;;;41.72;26.35;;;;;;;2.75;99.44;101364.78;4754114;30;20119;-83
2021/12/06 03:38:32;;;;;;;42.13;25.63;;;;;;;2.56;99.59;101344.81;4754442;30;20097;-88
2021/12/06 03:40:58;;;;;;;41.08;24.40;;;;;;;2.69;99.51;101363.25;4754481;30;20545;-87
2021/12/06 03:43:23;;;;;;;35.38;23.35;;;;;;;2.68;99.24;101368.38;4754226;30;20114;-88
2021/12/06 03:45:49;;;;;;;39.45;23.92;;;;;;;2.67;99.50;101370.09;4753887;30;20072;-87
2021/12/06 03:48:14;;;;;;;39.90;24.23;;;;;;;2.60;99.40;101363.44;4738193;30;20052;-86
2021/12/06 03:50:40;;;;;;;44.78;26.92;;;;;;;2.65;99.43;101369.25;4752602;30;20053;-86
2021/12/06 03:53:05;;;;;;;38.78;23.77;;;;;;;2.42;99.02;101335.78;4753324;30;20039;-87
2021/12/06 03:55:30;;;;;;;40.22;24.77;;;;;;;2.41;99.27;101346.84;4754033;30;20028;-87
2021/12/06 03:57:56;;;;;;;38.25;23.83;;;;;;;2.59;99.09;101379.59;4754065;30;20055;-85
2021/12/06 04:00:21;;;;;;;41.08;25.75;;;;;;;2.39;99.48;101341.78;4753854;30;20501;-88
2021/12/06 04:02:47;;;;;;;40.33;25.40;;;;;;;2.45;99.41;101356.09;4752707;30;20040;-87
2021/12/06 04:05:14;;;;;;;39.88;25.15;;;;;;;2.56;99.36;101374.59;4753658;30;20476;-87
2021/12/06 04:07:39;;;;;;;40.25;25.10;;;;;;;2.41;99.49;101346.84;4753552;30;20028;-85
2021/12/06 04:10:08;;;;;;;36.70;23.65;;;;;;;2.52;99.61;101378.88;4752533;30;20039;-86
2021/12/06 04:12:33;;;;;;;39.22;24.13;;;;;;;2.47;99.36;101374.78;4753721;30;20433;-85
2021/12/06 04:14:58;;;;;;;40.47;25.67;;;;;;;2.42;99.49;101366.38;4753574;30;20085;-84
2021/12/06 04:17:24;;;;;;;42.45;24.50;;;;;;;2.35;99.88;101358.00;4753638;30;20495;-85
2021/12/06 04:19:50;;;;;;;39.75;25.50;;;;;;;2.43;99.87;101381.63;4753532;30;20439;-85
2021/12/06 04:22:16;;;;;;;41.17;24.92;;;;;;;2.45;99.88;101382.41;4753261;30;20036;-83
2021/12/06 04:24:42;;;;;;;38.67;23.80;;;;;;;2.42;99.70;101374.00;4753399;30;20040;-87
2021/12/06 04:27:14;;;;;;;38.08;23.73;;;;;;;2.30;99.44;101357.25;4753315;30;20036;-86
2021/12/06 04:29:46;;;;;;;39.40;24.55;;;;;;;2.42;99.35;101381.66;4753434;30;20035;-88
2021/12/06 04:32:13;;;;;;;34.55;22.85;;;;;;;2.40;99.28;101383.41;4753400;30;20039;-87
2021/12/06 04:34:38;;;;;;;38.53;25.42;;;;;;;2.14;99.23;101335.50;4753308;30;20028;-87
2021/12/06 04:37:04;;;;;;;42.30;25.52;;;;;;;2.23;99.22;101369.28;4753254;30;20040;-88
2021/12/06 04:39:29;;;;;;;43.63;25.88;;;;;;;2.20;99.17;101384.63;4753184;30;20040;-85
2021/12/06 04:41:55;;;;;;;38.53;24.60;;;;;;;2.11;99.59;101383.97;4753103;30;20040;-86
2021/12/06 04:44:20;;;;;;;38.35;24.55;;;;;;;1.85;99.59;101348.78;4753387;30;20032;-87
2021/12/06 04:46:47;;;;;;;37.45;23.90;;;;;;;1.91;98.80;101389.44;4753067;30;20113;-87
2021/12/06 04:49:13;;;;;;;37.38;22.85;;;;;;;1.73;98.81;101388.91;4753215;30;20039;-86
2021/12/06 04:51:41;;;;;;;34.60;21.70;;;;;;;1.61;98.89;101383.19;4752527;30;20079;-86
2021/12/06 04:54:08;;;;;;;35.67;22.58;;;;;;;1.42;98.94;101373.31;4753063;30;20040;-87
2021/12/06 04:56:38;;;;;;;36.80;23.67;;;;;;;1.41;98.39;101397.06;4752983;30;20098;-85
2021/12/06 04:59:18;;;;;;;37.25;23.42;;;;;;;1.34;98.76;101404.81;4753069;30;20105;-88
2021/12/06 05:01:45;;;;;;;38.17;22.55;;;;;;;1.21;99.10;101404.19;4753058;30;20016;-87
2021/12/06 05:04:15;;;;;;;36.58;23.30;;;;;;;1.14;98.72;101413.59;4752916;30;20032;-87
2021/12/06 05:06:45;;;;;;;37.10;23.35;;;;;;;1.04;98.63;101411.22;4752490;30;20032;-83
2021/12/06 05:09:18;;;;;;;36.35;23.08;;;;;;;0.91;98.37;101410.56;4752491;30;20036;-83
2021/12/06 05:11:44;;;;;;;35.53;22.23;;;;;;;0.80;98.37;101397.16;4752642;30;20078;-86
2021/12/06 05:14:10;;;;;;;35.38;22.55;;;;;;;0.73;98.63;101398.09;4752719;30;20066;-84
2021/12/06 05:16:36;;;;;;;39.40;23.17;;;;;;;0.54;98.65;101390.69;4736829;30;20382;-83
2021/12/06 05:19:04;;;;;;;38.95;23.88;;;;;;;0.55;98.53;101402.53;4752842;30;20040;-79
2021/12/06 05:21:29;;;;;;;42.25;24.33;;;;;;;0.45;98.65;101395.06;4752514;30;20067;-88
2021/12/06 05:23:55;;;;;;;37.88;23.45;;;;;;;0.45;98.72;101412.84;4752268;30;20478;-88
2021/12/06 05:26:20;;;;;;;39.25;23.02;;;;;;;0.25;98.74;101391.03;4752835;30;20040;-87
2021/12/06 05:28:48;;;;;;;37.50;22.85;;;;;;;0.37;98.79;101419.69;4752639;30;20039;-85
2021/12/06 05:31:20;;;;;;;38.38;22.70;;;;;;;0.29;98.81;101424.84;4752535;30;20032;-86
2021/12/06 05:33:47;;;;;;;;;;;;;;;0.30;98.30;101421.50;4752903;30;20486;-86
2021/12/06 05:36:14;;;;;;;37.25;22.08;;;;;;;0.25;99.09;101418.16;4752433;30;19925;-86
2021/12/06 05:38:40;;;;;;;39.60;23.58;;;;;;;0.21;99.12;101412.28;4752297;30;20044;-81
2021/12/06 05:41:06;;;;;;;37.38;23.48;;;;;;;0.15;99.11;101408.94;4752483;30;20031;-84
2021/12/06 05:43:32;;;;;;;35.63;21.75;;;;;;;0.01;98.90;101404.03;4752445;30;20581;-86
2021/12/06 05:46:00;;;;;;;34.55;21.05;;;;;;;-0.10;98.70;101399.06;4752491;30;20042;-84
2021/12/06 05:48:26;;;;;;;39.47;21.92;;;;;;;-0.02;98.87;101412.50;4752255;30;20046;-84
2021/12/06 05:50:51;;;;;;;38.53;22.60;;;;;;;-0.12;98.93;101405.81;4752184;30;20054;-85
2021/12/06 05:53:18;;;;;;;37.45;22.33;;;;;;;-0.08;99.38;101417.66;4752499;30;20036;-85
2021/12/06 05:55:45;;;;;;;40.42;22.58;;;;;;;-0.11;99.16;101417.66;4752289;30;20059;-84
2021/12/06 05:58:12;;;;;;;50.17;23.63;;;;;;;-0.19;99.41;101418.59;4752299;30;20055;-85
2021/12/06 06:00:38;;;;;;;45.90;25.60;;;;;;;-0.15;99.99;101430.41;4752422;30;20032;-82
2021/12/06 06:03:05;;;;;;;41.78;24.63;;;;;;;-0.17;99.80;101430.41;4736395;30;20067;-82
2021/12/06 06:05:33;;;;;;;40.15;24.33;;;;;;;-0.19;100.00;101423.69;4752061;30;20512;-85
2021/12/06 06:07:58;;;;;;;43.35;24.48;;;;;;;-0.20;99.86;101432.13;4752267;30;20056;-81
2021/12/06 06:10:24;;;;;;;41.10;24.38;;;;;;;-0.23;99.64;101434.69;4751936;30;20181;-88
2021/12/06 06:12:49;;;;;;;44.72;25.02;;;;;;;-0.27;99.73;101438.97;4752235;30;20111;-82
2021/12/06 06:15:14;;;;;;;43.58;24.15;;;;;;;-0.21;100.00;101443.13;4753618;30;20521;-86
2021/12/06 06:17:43;;;;;;;54.63;25.90;;;;;;;-0.25;100.00;101428.81;4755545;30;20044;-83
2021/12/06 06:20:23;;;;;;;103.57;28.30;;;;;;;-0.15;100.00;101440.56;4755382;30;20036;-82
2021/12/06 06:22:49;;;;;;;118.95;30.90;;;;;;;0.01;100.00;101457.34;4755548;30;20389;-86
2021/12/06 06:25:15;;;;;;;144.82;29.88;;;;;;;-0.03;100.00;101446.34;4755205;30;20040;-84
2021/12/06 06:27:42;;;;;;;120.47;28.73;;;;;;;0.01;100.00;101438.72;4755493;30;20386;-86
2021/12/06 06:30:08;;;;;;;122.15;28.00;;;;;;;-0.02;100.00;101426.88;4755574;30;20080;-86
2021/12/06 06:32:33;;;;;;;133.60;29.08;;;;;;;0.07;100.00;101438.66;4755390;30;20032;-86
2021/12/06 06:34:59;;;;;;;175.98;29.08;;;;;;;0.20;100.00;101463.94;4755148;30;20105;-85
2021/12/06 06:37:24;;;;;;;180.57;30.02;;;;;;;0.25;100.00;101459.63;4755509;30;20051;-86
2021/12/06 06:39:49;;;;;;;171.18;30.02;;;;;;;0.32;100.00;101446.88;4755403;30;20043;-87
2021/12/06 06:42:15;;;;;;;147.13;30.80;;;;;;;0.47;100.00;101452.59;4755190;30;20047;-86
2021/12/06 06:44:41;;;;;;;122.70;27.88;;;;;;;0.57;100.00;101458.41;4755157;30;20044;-85
2021/12/06 06:47:06;;;;;;;124.43;28.85;;;;;;;0.55;100.00;101445.75;4754952;30;20058;-84
2021/12/06 06:49:31;;;;;;;104.72;27.70;;;;;;;0.56;100.00;101447.41;4754972;30;20036;-87
2021/12/06 06:51:59;;;;;;;93.15;26.33;;;;;;;0.75;100.00;101457.38;4754870;30;20056;-85
2021/12/06 06:54:24;;;;;;;122.07;26.90;;;;;;;0.68;100.00;101443.03;4754953;30;20056;-86
2021/12/06 06:56:49;;;;;;;132.98;28.10;;;;;;;0.88;100.00;101463.97;4754743;30;20079;-86
2021/12/06 06:59:15;;;;;;;105.68;26.30;;;;;;;0.67;100.00;101421.88;4755004;30;20103;-86
2021/12/06 07:01:41;;;;;;;97.10;25.92;;;;;;;0.95;100.00;101472.38;4754799;30;20058;-86
2021/12/06 07:04:07;;;;;;;79.63;25.95;;;;;;;0.85;100.00;101439.44;4738768;30;20052;-86
2021/12/06 07:06:33;;;;;;;76.43;25.75;;;;;;;1.09;100.00;101471.34;4754668;30;20063;-82
2021/12/06 07:08:59;;;;;;;80.45;27.70;;;;;;;1.12;100.00;101468.75;4754716;30;20482;-87
2021/12/06 07:11:26;;;;;;;96.18;27.92;;;;;;;1.01;100.00;101442.63;4754633;30;20468;-83
2021/12/06 07:13:52;;;;;;;81.68;27.02;;;;;;;1.23;100.00;101473.69;4754740;30;20070;-86
2021/12/06 07:16:18;;;;;;;74.03;28.20;;;;;;;1.20;100.00;101463.56;4754631;30;20068;-86
2021/12/06 07:18:44;;;;;;;60.05;28.00;;;;;;;1.29;100.00;101473.59;4754872;30;20068;-85
2021/12/06 07:21:10;;;;;;;67.50;28.60;;;;;;;1.38;100.00;101486.19;4754529;30;20888;-85
2021/12/06 07:23:38;;;;;;;60.13;27.67;;;;;;;1.42;100.00;101481.91;4754691;30;20042;-86
2021/12/06 07:26:08;;;;;;;83.30;29.80;;;;;;;1.33;100.00;101477.78;4753590;30;20037;-86
2021/12/06 07:28:34;;;;;;;66.53;30.40;;;;;;;1.43;100.00;101484.41;4754220;30;20032;-86
2021/12/06 07:30:59;;;;;;;72.35;29.40;;;;;;;1.48;100.00;101488.63;4754488;30;20098;-88
2021/12/06 07:33:26;;;;;;;69.00;31.63;;;;;;;1.56;100.00;101502.03;4754444;30;20040;-88
2021/12/06 07:35:52;;;;;;;85.53;31.05;;;;;;;1.56;100.00;101504.59;4754210;30;20580;-87
2021/12/06 07:38:17;;;;;;;69.10;31.55;;;;;;;1.60;100.00;101503.69;4763567;24;20109;-88
2021/12/06 07:40:43;;;;;;;94.47;32.88;;;;;;;1.60;100.00;101511.34;4754164;30;20486;-85
2021/12/06 07:43:08;;;;;;;89.47;31.98;;;;;;;1.63;100.00;101516.38;4753862;30;20177;-87
2021/12/06 07:45:34;;;;;;;93.90;32.03;;;;;;;1.38;100.00;101475.19;4754082;30;20036;-86
2021/12/06 07:48:00;;;;;;;119.47;33.20;;;;;;;1.49;100.00;101488.59;4754227;30;20412;-84
2021/12/06 07:50:25;;;;;;;90.65;31.30;;;;;;;1.42;100.00;101467.47;4754041;30;20039;-87
2021/12/06 07:52:52;;;;;;;108.93;30.70;;;;;;;1.57;100.00;101498.63;4754030;30;20060;-84
2021/12/06 07:55:20;;;;;;;93.55;31.52;;;;;;;1.59;100.00;101502.00;4753901;30;20039;-86
2021/12/06 07:57:46;;;;;;;104.20;31.05;;;;;;;1.49;100.00;101478.41;4753647;30;20028;-87
2021/12/06 08:00:16;;;;;;;100.40;32.42;;;;;;;1.43;100.00;101469.16;4737906;30;20039;-87
2021/12/06 08:02:41;;;;;;;74.15;31.55;;;;;;;1.37;100.00;101445.47;4753964;30;20089;-87
2021/12/06 08:07:53;;;;;;;76.63;31.35;;;;;;;1.58;100.00;101470.63;4771985;30;20128;-92
2021/12/06 08:10:18;;;;;;;72.90;30.05;;;;;;;1.57;100.00;101447.72;4771510;30;20051;-77
2021/12/06 08:12:44;;;;;;;60.67;30.88;;;;;;;1.75;100.00;101466.97;4771160;30;20032;-79
2021/12/06 08:15:10;;;;;;;61.78;31.73;;;;;;;1.81;100.00;101470.25;4771472;30;20482;-77
2021/12/06 08:17:36;;;;;;;57.83;29.55;;;;;;;1.74;100.00;101458.47;4771125;30;20043;-80
2021/12/06 08:20:02;;;;;;;62.75;30.10;;;;;;;1.74;100.00;101453.38;4771249;30;20039;-78
2021/12/06 08:22:28;;;;;;;55.85;30.60;;;;;;;1.82;100.00;101461.75;4771216;30;20443;-86
2021/12/06 08:24:53;;;;;;;56.67;32.55;;;;;;;1.92;100.00;101465.81;4771248;30;20044;-89
2021/12/06 08:27:18;;;;;;;69.43;33.05;;;;;;;1.85;100.00;101448.94;4770979;30;20032;-88
2021/12/06 08:29:44;;;;;;;58.75;32.53;;;;;;;2.03;100.00;101469.88;4771104;30;20481;-79
2021/12/06 08:32:11;;;;;;;68.13;35.47;;;;;;;1.96;100.00;101459.78;4771146;30;20028;-82
2021/12/06 08:34:41;;;;;;;68.82;35.28;;;;;;;1.87;100.00;101444.69;4770926;30;20038;-87
2021/12/06 08:37:07;;;;;;;68.10;35.25;;;;;;;2.11;100.00;101484.16;4771177;30;20035;-91
2021/12/06 08:39:33;;;;;;;69.55;35.55;;;;;;;2.03;100.00;101464.78;4770675;30;20075;-88
2021/12/06 08:41:58;;;;;;;71.45;35.30;;;;;;;1.99;100.00;101472.50;4754898;30;20043;-87
2021/12/06 08:44:27;;;;;;;78.63;35.63;;;;;;;2.15;100.00;101501.06;4771116;30;20075;-72
2021/12/06 08:46:53;;;;;;;88.20;38.75;;;;;;;2.15;100.00;101510.44;4770883;30;20035;-91
2021/12/06 08:49:18;;;;;;;74.40;35.78;;;;;;;2.08;100.00;101498.69;4770747;30;20036;-88
2021/12/06 08:51:47;;;;;;;77.60;35.38;;;;;;;2.10;100.00;101505.44;4771103;30;20466;-90
2021/12/06 08:54:14;;;;;;;85.93;35.20;;;;;;;2.13;100.00;101515.56;4770727;30;20039;-93
2021/12/06 08:56:40;;;;;;;97.15;37.20;;;;;;;2.06;100.00;101511.41;4770930;30;20032;-81
2021/12/06 08:59:07;;;;;;;76.05;37.38;;;;;;;1.84;100.00;101466.81;4770520;30;20378;-84
2021/12/06 09:01:33;;;;;;;86.97;38.50;;;;;;;2.10;100.00;101518.16;4770689;30;20555;-92
2021/12/06 09:03:59;;;;;;;83.10;36.85;;;;;;;1.96;100.00;101499.69;4770547;30;20552;-91
2021/12/06 09:06:25;;;;;;;92.10;37.83;;;;;;;2.10;100.00;101520.72;4770404;30;20051;-89
2021/12/06 09:08:51;;;;;;;82.18;39.25;;;;;;;2.13;100.00;101523.19;4770807;30;20040;-91
2021/12/06 09:11:16;;;;;;;81.50;40.28;;;;;;;2.17;100.00;101519.75;4770737;30;20450;-87
2021/12/06 09:13:42;;;;;;;79.90;38.92;;;;;;;2.19;100.00;101514.63;4754726;30;20116;-91
2021/12/06 09:16:09;;;;;;;85.35;39.83;;;;;;;2.09;100.00;101495.25;4770613;30;20488;-91
2021/12/06 09:18:38;;;;;;;80.20;41.70;;;;;;;2.30;100.00;101520.38;4771048;30;20039;-79
2021/12/06 09:21:09;;;;;;;79.60;40.35;;;;;;;2.35;100.00;101525.38;4770633;30;20114;-82
2021/12/06 09:23:35;;;;;;;81.80;40.33;;;;;;;2.40;100.00;101523.59;4770464;30;20115;-82
2021/12/06 09:26:01;;;;;;;82.00;41.17;;;;;;;2.45;100.00;101521.78;4770328;30;20042;-81
2021/12/06 09:28:28;;;;;;;85.70;41.20;;;;;;;2.42;100.00;101511.66;4770385;30;20032;-84
2021/12/06 09:30:53;;;;;;;77.60;39.47;;;;;;;2.48;100.00;101517.50;4770372;30;20462;-82
2021/12/06 09:33:19;;;;;;;77.28;39.75;;;;;;;2.50;100.00;101520.84;4770594;30;20060;-78
2021/12/06 09:35:47;;;;;;;74.38;38.58;;;;;;;2.43;100.00;101509.06;4770338;30;20074;-82
2021/12/06 09:38:16;;;;;;;71.80;37.75;;;;;;;2.57;100.00;101519.03;4770253;30;20441;-79
2021/12/06 09:40:45;;;;;;;72.72;36.80;;;;;;;2.57;100.00;101517.31;4770362;30;20097;-78
2021/12/06 09:43:13;;;;;;;77.78;37.65;;;;;;;2.57;99.79;101514.78;4765802;24;20131;-82
2021/12/06 09:45:40;;;;;;;73.68;37.22;;;;;;;2.23;100.00;101465.28;4752375;30;20039;-80
2021/12/06 09:48:06;;;;;;;74.18;37.72;;;;;;;2.55;99.92;101520.75;4752537;30;20120;-78
2021/12/06 09:50:51;;;;;;;72.03;36.17;;;;;;;2.61;100.00;101523.19;4754302;30;20036;-88
2021/12/06 09:53:20;;;;;;;67.30;34.90;;;;;;;2.55;100.00;101519.03;4740321;30;20360;-79
2021/12/06 09:55:49;;;;;;;74.80;35.90;;;;;;;2.48;100.00;101507.28;4755986;30;20116;-79
2021/12/06 09:58:16;;;;;;;62.92;33.25;;;;;;;2.62;100.00;101526.56;4763837;30;20109;-85
2021/12/06 10:00:46;;;;;;;63.20;34.13;;;;;;;2.59;100.00;101528.31;4773646;30;20059;-84
2021/12/06 10:03:22;;;;;;;67.93;35.00;;;;;;;2.52;100.00;101514.00;4757755;30;20055;-77
2021/12/06 10:05:48;;;;;;;71.53;33.83;;;;;;;2.48;99.92;101509.84;4774131;30;20058;-79
2021/12/06 10:08:14;;;;;;;63.70;33.75;;;;;;;2.60;99.81;101516.41;4773664;30;20035;-78
2021/12/06 10:10:39;;;;;;;68.35;32.58;;;;;;;2.54;99.70;101519.91;4773912;30;20397;-80
2021/12/06 10:13:05;;;;;;;71.63;35.45;;;;;;;2.48;99.91;101498.81;4773970;30;20036;-79
2021/12/06 10:15:31;;;;;;;63.72;32.58;;;;;;;2.59;99.97;101501.97;4773680;30;20051;-82
2021/12/06 10:18:00;;;;;;;68.28;34.53;;;;;;;2.53;100.00;101486.78;4773275;30;20035;-80
2021/12/06 10:20:26;;;;;;;65.60;34.05;;;;;;;2.66;99.98;101498.47;4773517;30;20042;-77
2021/12/06 10:22:54;;;;;;;68.38;34.40;;;;;;;2.66;100.00;101489.97;4773363;30;20498;-85
2021/12/06 10:25:20;;;;;;;63.67;33.53;;;;;;;2.64;100.00;101468.75;4773176;30;20496;-77
2021/12/06 10:27:58;;;;;;;64.10;31.85;;;;;;;2.70;100.00;101464.38;4773251;30;20174;-76
2021/12/06 10:30:25;;;;;;;73.75;35.70;;;;;;;2.69;99.64;101459.31;4772953;30;20032;-87
2021/12/06 10:33:00;;;;;;;75.35;34.10;;;;;;;2.72;99.52;101471.97;4773260;30;20040;-77
2021/12/06 10:35:25;;;;;;;80.80;34.28;;;;;;;2.70;99.59;101460.97;4773416;30;20034;-89
2021/12/06 10:37:57;;;;;;;79.53;34.92;;;;;;;2.59;99.74;101448.44;4773095;30;20114;-82
2021/12/06 10:40:32;;;;;;;78.88;33.53;;;;;;;2.77;99.17;101481.22;4772988;30;20543;-81
2021/12/06 10:43:03;;;;;;;90.28;34.95;;;;;;;2.60;99.21;101442.47;4773056;30;20080;-83
2021/12/06 10:45:32;;;;;;;94.15;35.10;;;;;;;2.85;99.22;101473.41;4773392;30;20027;-82
2021/12/06 10:48:03;;;;;;;96.85;36.25;;;;;;;2.83;98.43;101460.69;4772512;30;20040;-79
2021/12/06 10:50:29;;;;;;;103.03;36.63;;;;;;;2.79;98.38;101446.31;4772782;30;20077;-83
2021/12/06 10:52:57;;;;;;;89.35;34.28;;;;;;;2.76;97.59;101446.41;4774290;30;20039;-89
2021/12/06 10:55:27;;;;;;;84.70;32.40;;;;;;;2.77;97.71;101439.59;4773212;30;20118;-93
2021/12/06 10:57:56;;;;;;;82.97;31.98;;;;;;;2.74;97.89;101432.81;4772998;30;20035;-81
2021/12/06 11:00:33;;;;;;;85.55;32.75;;;;;;;2.80;98.26;101416.56;4773391;30;20063;-84
2021/12/06 11:03:00;;;;;;;87.25;31.15;;;;;;;2.65;97.47;101389.66;4772548;30;20111;-86
2021/12/06 11:05:28;;;;;;;83.88;31.70;;;;;;;2.80;97.10;101414.00;4772581;30;20035;-86
2021/12/06 11:08:11;;;;;;;80.38;31.13;;;;;;;2.70;97.32;101387.88;4772491;30;20064;-84
2021/12/06 11:10:47;;;;;;;76.18;31.15;;;;;;;2.90;96.14;101402.72;4772333;30;20450;-85
2021/12/06 11:13:24;;;;;;;78.05;32.25;;;;;;;2.94;96.41;101406.88;4772469;30;20039;-84
2021/12/06 11:15:54;;;;;;;68.53;29.08;;;;;;;2.97;96.34;101409.38;4772254;30;20035;-85
2021/12/06 11:18:52;;;;;;;76.88;31.63;;;;;;;3.03;96.25;101401.56;4772016;30;20389;-86
2021/12/06 11:21:19;;;;;;;70.90;28.88;;;;;;;3.08;95.69;101393.84;4772426;30;20031;-85
2021/12/06 11:23:55;;;;;;;65.18;28.23;;;;;;;3.06;95.59;101398.97;4772401;30;20039;-87
2021/12/06 11:26:20;;;;;;;61.38;27.42;;;;;;;3.04;95.04;101382.00;4772167;30;20042;-87
2021/12/06 11:28:45;;;;;;;54.95;26.75;;;;;;;2.97;94.67;101367.72;4772000;30;20040;-86
2021/12/06 11:31:15;;;;;;;51.08;25.65;;;;;;;3.04;95.47;101371.78;4772397;30;20044;-88